createdAt,value
2024-01-06T00:00:02.648Z,7.37
2024-01-06T00:02:39.378Z,9.30
2024-01-06T00:05:10.211Z,9.40
2024-01-06T00:07:41.183Z,10.10
2024-01-06T00:10:09.839Z,10.90
2024-01-06T00:12:38.266Z,11.97
2024-01-06T00:15:07.275Z,12.97
2024-01-06T00:17:35.818Z,13.40
2024-01-06T00:20:04.309Z,13.67
2024-01-06T00:22:32.668Z,14.37
2024-01-06T00:25:02.659Z,16.43
2024-01-06T00:27:31.125Z,15.27
2024-01-06T00:30:01.632Z,19.23
2024-01-06T00:32:35.813Z,16.30
2024-01-06T00:35:05.882Z,15.30
2024-01-06T00:37:34.215Z,14.07
2024-01-06T00:40:06.284Z,15.30
2024-01-06T00:42:34.640Z,15.20
2024-01-06T00:45:03.010Z,16.03
2024-01-06T00:47:31.469Z,15.27
2024-01-06T00:49:59.803Z,16.37
2024-01-06T00:52:28.060Z,15.80
2024-01-06T00:54:56.337Z,16.50
2024-01-06T00:57:26.022Z,19.90
2024-01-06T00:59:54.317Z,17.40
2024-01-06T01:02:22.608Z,16.07
2024-01-06T01:04:50.970Z,15.87
2024-01-06T01:07:19.408Z,16.17
2024-01-06T01:09:47.771Z,16.27
2024-01-06T01:12:16.149Z,19.23
2024-01-06T01:14:45.880Z,18.40
2024-01-06T01:17:14.341Z,17.57
2024-01-06T01:19:42.829Z,16.27
2024-01-06T01:22:11.141Z,16.83
2024-01-06T01:24:41.874Z,15.33
2024-01-06T01:27:13.128Z,19.23
2024-01-06T01:29:52.826Z,17.53
2024-01-06T01:32:22.661Z,16.23
2024-01-06T01:35:00.104Z,18.40
2024-01-06T01:37:37.485Z,22.90
2024-01-06T01:40:06.195Z,19.87
2024-01-06T01:42:34.465Z,23.07
2024-01-06T01:45:02.898Z,22.77
2024-01-06T01:47:32.768Z,18.63
2024-01-06T01:50:01.305Z,18.00
2024-01-06T01:52:29.678Z,20.27
2024-01-06T01:54:57.945Z,21.23
2024-01-06T01:57:32.120Z,18.67
2024-01-06T02:00:09.190Z,21.70
2024-01-06T02:02:54.246Z,17.53
2024-01-06T02:05:22.621Z,15.60
2024-01-06T02:07:52.128Z,15.23
2024-01-06T02:10:20.594Z,17.70
2024-01-06T02:12:48.991Z,14.73
2024-01-06T02:15:17.372Z,13.97
2024-01-06T02:17:47.128Z,13.17
2024-01-06T02:20:17.339Z,13.93
2024-01-06T02:22:46.901Z,14.97
2024-01-06T02:25:15.285Z,14.43
2024-01-06T02:27:43.794Z,17.43
2024-01-06T02:30:12.614Z,15.67
2024-01-06T02:32:41.023Z,13.67
2024-01-06T02:35:09.749Z,12.60
2024-01-06T02:37:38.066Z,11.17
2024-01-06T02:40:08.426Z,16.43
2024-01-06T02:42:36.735Z,15.97
2024-01-06T02:45:05.187Z,13.90
2024-01-06T02:47:33.486Z,13.87
2024-01-06T02:50:01.864Z,14.07
2024-01-06T02:52:30.362Z,10.80
2024-01-06T02:54:58.626Z,16.60
2024-01-06T02:57:28.272Z,13.50
2024-01-06T02:59:56.631Z,11.23
2024-01-06T03:02:25.065Z,13.50
2024-01-06T03:04:53.647Z,13.77
2024-01-06T03:07:21.936Z,14.20
2024-01-06T03:09:50.343Z,12.83
2024-01-06T03:12:18.927Z,13.70
2024-01-06T03:14:48.598Z,18.13
2024-01-06T03:17:16.955Z,12.80
2024-01-06T03:19:45.334Z,11.83
2024-01-06T03:22:13.751Z,10.07
2024-01-06T03:24:43.026Z,10.67
2024-01-06T03:27:11.374Z,11.03
2024-01-06T03:29:39.646Z,14.47
2024-01-06T03:32:18.317Z,12.70
2024-01-06T03:34:46.665Z,8.10
2024-01-06T03:37:15.050Z,12.70
2024-01-06T03:39:43.325Z,11.87
2024-01-06T03:42:11.652Z,11.53
2024-01-06T03:44:39.904Z,14.00
2024-01-06T03:47:08.444Z,13.20
2024-01-06T03:49:38.269Z,10.53
2024-01-06T03:52:07.090Z,9.27
2024-01-06T03:54:35.488Z,8.13
2024-01-06T03:57:03.776Z,11.23
2024-01-06T03:59:32.056Z,8.27
2024-01-06T04:02:00.610Z,11.47
2024-01-06T04:04:28.854Z,10.60
2024-01-06T04:06:58.522Z,11.07
2024-01-06T04:09:26.780Z,10.53
2024-01-06T04:11:55.061Z,8.73
2024-01-06T04:14:23.373Z,10.37
2024-01-06T04:16:52.493Z,10.20
2024-01-06T04:19:26.283Z,10.87
2024-01-06T04:21:56.557Z,11.53
2024-01-06T04:24:26.355Z,12.83
2024-01-06T04:26:54.868Z,12.63
2024-01-06T04:29:23.091Z,12.40
2024-01-06T04:31:51.435Z,14.87
2024-01-06T04:34:19.938Z,15.73
2024-01-06T04:36:49.620Z,16.53
2024-01-06T04:39:17.958Z,12.33
2024-01-06T04:41:47.666Z,13.03
2024-01-06T04:44:15.880Z,13.00
2024-01-06T04:46:44.171Z,12.47
2024-01-06T04:49:13.297Z,14.17
2024-01-06T04:51:41.890Z,14.00
2024-01-06T04:54:10.336Z,15.43
2024-01-06T04:56:38.714Z,14.97
2024-01-06T04:59:08.714Z,15.70
2024-01-06T05:01:37.018Z,14.90
2024-01-06T05:04:05.526Z,15.43
2024-01-06T05:06:33.937Z,18.23
2024-01-06T05:09:02.364Z,15.93
2024-01-06T05:11:30.579Z,18.60
2024-01-06T05:13:58.853Z,19.80
2024-01-06T05:16:28.777Z,20.67
2024-01-06T05:18:57.212Z,25.57
2024-01-06T05:21:25.611Z,23.43
2024-01-06T05:23:53.878Z,22.53
2024-01-06T05:26:22.138Z,23.07
2024-01-06T05:28:51.229Z,22.33
2024-01-06T05:31:19.543Z,23.23
2024-01-06T05:33:49.377Z,23.50
2024-01-06T05:36:21.428Z,25.07
2024-01-06T05:38:53.054Z,23.80
2024-01-06T05:41:21.801Z,21.40
2024-01-06T05:43:50.105Z,26.13
2024-01-06T05:46:23.098Z,21.77
2024-01-06T05:48:52.935Z,31.43
2024-01-06T05:51:21.432Z,24.03
2024-01-06T05:53:49.765Z,23.03
2024-01-06T05:56:25.518Z,25.37
2024-01-06T05:58:54.070Z,23.93
2024-01-06T06:01:23.919Z,22.77
2024-01-06T06:03:54.085Z,21.63
2024-01-06T06:06:22.491Z,19.37
2024-01-06T06:08:50.860Z,19.00
2024-01-06T06:11:19.749Z,19.87
2024-01-06T06:13:48.057Z,19.87
2024-01-06T06:16:16.321Z,21.00
2024-01-06T06:18:44.647Z,21.00
2024-01-06T06:21:14.287Z,22.13
2024-01-06T06:23:42.670Z,24.20
2024-01-06T06:26:12.865Z,20.17
2024-01-06T06:28:41.109Z,24.70
2024-01-06T06:31:09.727Z,20.00
2024-01-06T06:33:38.300Z,19.80
2024-01-06T06:36:07.050Z,27.10
2024-01-06T06:38:36.656Z,24.47
2024-01-06T06:41:05.035Z,22.70
2024-01-06T06:43:33.300Z,24.47
2024-01-06T06:46:01.598Z,25.60
2024-01-06T06:48:30.941Z,23.77
2024-01-06T06:50:59.236Z,28.30
2024-01-06T06:53:27.503Z,28.37
2024-01-06T06:55:57.147Z,25.63
2024-01-06T06:58:25.421Z,28.03
2024-01-06T07:00:55.494Z,27.07
2024-01-06T07:03:23.952Z,30.63
2024-01-06T07:05:52.355Z,24.40
2024-01-06T07:08:20.644Z,27.57
2024-01-06T07:10:48.920Z,25.77
2024-01-06T07:13:18.571Z,27.47
2024-01-06T07:15:47.178Z,24.17
2024-01-06T07:18:15.596Z,26.20
2024-01-06T07:20:43.990Z,26.20
2024-01-06T07:23:12.253Z,25.30
2024-01-06T07:25:40.598Z,23.83
2024-01-06T07:28:09.300Z,25.33
2024-01-06T07:30:39.180Z,23.83
2024-01-06T07:33:07.522Z,22.17
2024-01-06T07:35:35.929Z,25.47
2024-01-06T07:38:04.183Z,21.70
2024-01-06T07:40:32.464Z,22.20
2024-01-06T07:43:00.702Z,25.13
2024-01-06T07:45:29.066Z,23.27
2024-01-06T07:47:58.793Z,25.33
2024-01-06T07:50:27.185Z,26.37
2024-01-06T07:52:55.436Z,22.77
2024-01-06T07:55:23.711Z,23.60
2024-01-06T07:57:52.066Z,21.53
2024-01-06T08:00:20.607Z,19.53
2024-01-06T08:02:48.968Z,19.13
2024-01-06T08:05:18.667Z,20.10
2024-01-06T08:07:46.979Z,19.43
2024-01-06T08:10:15.298Z,19.13
2024-01-06T08:12:43.867Z,17.97
2024-01-06T08:15:12.358Z,20.10
2024-01-06T08:17:41.964Z,20.37
2024-01-06T08:20:10.846Z,21.10
2024-01-06T08:22:42.372Z,19.30
2024-01-06T08:25:11.929Z,22.90
2024-01-06T08:27:40.228Z,20.30
2024-01-06T08:30:09.391Z,19.00
2024-01-06T08:32:41.565Z,18.47
2024-01-06T08:35:10.475Z,19.97
2024-01-06T08:37:40.140Z,22.27
2024-01-06T08:40:09.051Z,18.73
2024-01-06T08:42:37.346Z,19.87
2024-01-06T08:45:06.089Z,19.73
2024-01-06T08:47:34.458Z,21.87
2024-01-06T08:50:02.864Z,22.20
2024-01-06T08:52:31.205Z,18.23
2024-01-06T08:55:00.867Z,18.83
2024-01-06T08:57:29.461Z,20.60
2024-01-06T08:59:57.740Z,22.80
2024-01-06T09:02:26.617Z,19.47
2024-01-06T09:04:55.015Z,19.43
2024-01-06T09:07:23.300Z,15.70
2024-01-06T09:09:52.750Z,13.37
2024-01-06T09:12:22.674Z,14.10
2024-01-06T09:14:50.997Z,15.40
2024-01-06T09:17:19.360Z,17.17
2024-01-06T09:19:49.005Z,21.20
2024-01-06T09:22:17.406Z,22.17
2024-01-06T09:24:45.693Z,17.63
2024-01-06T09:27:14.167Z,17.63
2024-01-06T09:29:43.822Z,18.37
2024-01-06T09:32:14.242Z,17.37
2024-01-06T09:34:42.597Z,18.10
2024-01-06T09:37:10.937Z,15.73
2024-01-06T09:39:40.593Z,20.17
2024-01-06T09:42:09.806Z,15.43
2024-01-06T09:44:38.070Z,16.60
2024-01-06T09:47:08.687Z,13.03
2024-01-06T09:49:39.350Z,15.00
2024-01-06T09:52:12.549Z,14.50
2024-01-06T09:54:42.492Z,17.03
2024-01-06T09:57:10.793Z,13.67
2024-01-06T09:59:39.340Z,12.57
2024-01-06T10:02:09.451Z,13.10
2024-01-06T10:04:37.829Z,13.37
2024-01-06T10:07:06.876Z,13.77
2024-01-06T10:09:35.331Z,15.20
2024-01-06T10:12:03.637Z,11.00
2024-01-06T10:14:31.907Z,16.20
2024-01-06T10:17:00.199Z,13.03
2024-01-06T10:19:30.458Z,14.60
2024-01-06T10:22:03.074Z,13.17
2024-01-06T10:24:32.920Z,10.70
2024-01-06T10:27:02.257Z,12.83
2024-01-06T10:29:30.670Z,11.73
2024-01-06T10:31:59.039Z,12.53
2024-01-06T10:34:27.822Z,13.93
2024-01-06T10:36:57.798Z,12.07
2024-01-06T10:39:26.205Z,11.57
2024-01-06T10:41:55.052Z,10.30
2024-01-06T10:44:24.246Z,14.37
2024-01-06T10:46:53.518Z,13.30
2024-01-06T10:49:23.565Z,14.90
2024-01-06T10:51:52.040Z,14.87
2024-01-06T10:54:22.583Z,13.27
2024-01-06T10:56:51.677Z,13.53
2024-01-06T10:59:21.085Z,16.83
2024-01-06T11:01:49.957Z,14.93
2024-01-06T11:04:18.841Z,13.40
2024-01-06T11:06:48.584Z,14.83
2024-01-06T11:09:19.118Z,15.30
2024-01-06T11:11:48.893Z,15.17
2024-01-06T11:14:21.007Z,13.77
2024-01-06T11:16:49.400Z,13.63
2024-01-06T11:19:37.980Z,16.23
2024-01-06T11:22:21.063Z,12.57
2024-01-06T11:24:50.463Z,12.07
2024-01-06T11:27:24.236Z,17.07
2024-01-06T11:29:55.468Z,13.13
2024-01-06T11:32:28.439Z,15.77
2024-01-06T11:34:58.685Z,14.30
2024-01-06T11:37:26.539Z,14.10
2024-01-06T11:39:55.412Z,10.57
2024-01-06T11:42:34.217Z,11.97
2024-01-06T11:45:04.473Z,10.50
2024-01-06T11:47:32.982Z,10.47
2024-01-06T11:50:04.700Z,11.13
2024-01-06T11:52:33.260Z,11.27
2024-01-06T11:55:01.808Z,10.07
2024-01-06T11:57:34.656Z,10.53
2024-01-06T12:00:05.365Z,13.70
2024-01-06T12:02:33.768Z,11.30
2024-01-06T12:05:02.229Z,8.93
2024-01-06T12:07:32.812Z,11.50
2024-01-06T12:10:04.099Z,9.47
2024-01-06T12:12:33.990Z,11.50
2024-01-06T12:15:02.361Z,11.63
2024-01-06T12:17:31.823Z,13.97
2024-01-06T12:20:01.358Z,10.03
2024-01-06T12:22:30.014Z,9.70
2024-01-06T12:24:58.393Z,10.63
2024-01-06T12:27:27.513Z,11.30
2024-01-06T12:29:57.217Z,9.70
2024-01-06T12:32:26.378Z,11.07
2024-01-06T12:34:54.798Z,8.33
2024-01-06T12:37:23.117Z,9.20
2024-01-06T12:39:53.071Z,10.63
2024-01-06T12:42:24.994Z,9.90
2024-01-06T12:44:53.476Z,10.07
2024-01-06T12:47:23.347Z,10.40
2024-01-06T12:49:51.834Z,9.53
2024-01-06T12:52:20.159Z,9.77
2024-01-06T12:54:48.696Z,9.20
2024-01-06T12:57:17.148Z,8.43
2024-01-06T12:59:45.573Z,10.27
2024-01-06T13:02:14.052Z,9.23
2024-01-06T13:04:44.483Z,10.87
2024-01-06T13:07:12.849Z,10.77
2024-01-06T13:09:41.864Z,9.50
2024-01-06T13:12:10.423Z,10.60
2024-01-06T13:14:39.435Z,10.83
2024-01-06T13:17:10.105Z,13.93
2024-01-06T13:19:38.490Z,13.07
2024-01-06T13:22:08.514Z,12.90
2024-01-06T13:24:36.855Z,12.93
2024-01-06T13:27:05.801Z,13.80
2024-01-06T13:29:34.459Z,15.50
2024-01-06T13:32:03.012Z,13.67
2024-01-06T13:34:31.666Z,13.87
2024-01-06T13:37:00.170Z,18.43
2024-01-06T13:39:29.906Z,18.47
2024-01-06T13:41:58.206Z,15.83
2024-01-06T13:44:26.517Z,19.87
2024-01-06T13:46:55.903Z,19.47
2024-01-06T13:49:24.847Z,18.90
2024-01-06T13:51:53.505Z,17.10
2024-01-06T13:54:21.891Z,18.90
2024-01-06T13:56:53.080Z,17.60
2024-01-06T13:59:21.401Z,16.10
2024-01-06T14:01:49.774Z,16.23
2024-01-06T14:04:18.319Z,12.63
2024-01-06T14:06:49.100Z,13.67
2024-01-06T14:09:17.686Z,12.27
2024-01-06T14:11:46.243Z,14.20
2024-01-06T14:14:15.867Z,12.23
2024-01-06T14:16:47.867Z,14.67
2024-01-06T14:19:16.453Z,20.00
2024-01-06T14:21:47.674Z,20.60
2024-01-06T14:24:15.970Z,24.50
2024-01-06T14:26:44.442Z,23.47
2024-01-06T14:29:17.353Z,25.63
2024-01-06T14:31:47.152Z,22.60
2024-01-06T14:34:15.877Z,22.73
2024-01-06T14:36:48.688Z,27.60
2024-01-06T14:39:20.008Z,22.33
2024-01-06T14:41:48.653Z,22.83
2024-01-06T14:44:17.055Z,26.90
2024-01-06T14:46:46.713Z,27.07
2024-01-06T14:49:15.212Z,25.77
2024-01-06T14:51:43.520Z,29.33
2024-01-06T14:54:12.846Z,28.93
2024-01-06T14:56:42.042Z,28.17
2024-01-06T14:59:10.467Z,27.10
2024-01-06T15:01:39.067Z,23.60
2024-01-06T15:04:08.989Z,27.67
2024-01-06T15:06:37.453Z,24.93
2024-01-06T15:09:05.805Z,23.87
2024-01-06T15:11:34.147Z,21.33
2024-01-06T15:14:05.694Z,21.27
2024-01-06T15:16:34.082Z,24.63
2024-01-06T15:19:02.518Z,22.10
2024-01-06T15:21:34.963Z,21.90
2024-01-06T15:24:03.554Z,21.90
2024-01-06T15:26:31.968Z,20.10
2024-01-06T15:29:01.708Z,19.83
2024-01-06T15:31:30.555Z,23.90
2024-01-06T15:33:59.166Z,23.00
2024-01-06T15:36:32.111Z,21.17
2024-01-06T15:39:00.553Z,22.10
2024-01-06T15:42:25.086Z,19.03
2024-01-06T15:45:22.321Z,20.73
2024-01-06T15:47:50.790Z,19.17
2024-01-06T15:50:19.291Z,18.97
2024-01-06T15:52:49.295Z,20.27
2024-01-06T15:55:28.391Z,20.37
2024-01-06T15:57:56.811Z,24.07
2024-01-06T16:00:25.237Z,21.23
2024-01-06T16:02:53.736Z,19.47
2024-01-06T16:05:22.806Z,19.90
2024-01-06T16:07:53.453Z,15.17
2024-01-06T16:10:22.963Z,18.07
2024-01-06T16:12:52.443Z,17.57
2024-01-06T16:15:21.645Z,17.33
2024-01-06T16:17:50.116Z,17.57
2024-01-06T16:20:18.605Z,18.60
2024-01-06T16:22:47.392Z,20.13
2024-01-06T16:25:17.335Z,16.73
2024-01-06T16:27:45.787Z,20.13
2024-01-06T16:30:14.879Z,22.50
2024-01-06T16:32:43.322Z,24.40
2024-01-06T16:35:11.773Z,25.37
2024-01-06T16:37:40.406Z,25.50
2024-01-06T16:40:11.447Z,28.73
2024-01-06T16:42:41.576Z,28.73
2024-01-06T16:45:10.471Z,25.80
2024-01-06T16:47:39.281Z,29.17
2024-01-06T16:50:08.598Z,23.43
2024-01-06T16:52:37.453Z,28.03
2024-01-06T16:55:06.219Z,22.87
2024-01-06T16:57:34.916Z,27.13
2024-01-06T17:00:06.121Z,25.90
2024-01-06T17:02:34.714Z,29.93
2024-01-06T17:05:03.213Z,30.70
2024-01-06T17:07:31.785Z,28.43
2024-01-06T17:10:02.056Z,25.67
2024-01-06T17:12:30.538Z,23.83
2024-01-06T17:14:59.016Z,22.40
2024-01-06T17:17:29.950Z,26.60
2024-01-06T17:19:58.593Z,26.57
2024-01-06T17:22:27.062Z,22.47
2024-01-06T17:24:55.396Z,26.93
2024-01-06T17:27:24.191Z,26.20
2024-01-06T17:29:53.372Z,28.90
2024-01-06T17:32:21.771Z,25.43
2024-01-06T17:34:51.513Z,28.27
2024-01-06T17:37:19.995Z,26.97
2024-01-06T17:39:48.380Z,29.30
2024-01-06T17:42:16.762Z,29.30
2024-01-06T17:44:47.286Z,25.50
2024-01-06T17:47:16.316Z,28.03
2024-01-06T17:49:44.757Z,30.50
2024-01-06T17:52:14.586Z,26.47
2024-01-06T17:54:44.755Z,33.53
2024-01-06T17:57:18.859Z,28.90
2024-01-06T17:59:47.523Z,32.77
2024-01-06T18:02:16.393Z,33.67
2024-01-06T18:04:44.904Z,33.23
2024-01-06T18:07:14.783Z,30.40
2024-01-06T18:09:43.326Z,31.43
2024-01-06T18:12:11.796Z,29.30
2024-01-06T18:14:40.422Z,35.87
2024-01-06T18:17:09.409Z,31.23
2024-01-06T18:19:37.938Z,33.13
2024-01-06T18:22:06.551Z,31.87
2024-01-06T18:24:36.389Z,32.30
2024-01-06T18:27:04.804Z,33.77
2024-01-06T18:29:35.116Z,33.63
2024-01-06T18:32:03.622Z,33.60
2024-01-06T18:34:32.508Z,30.43
2024-01-06T18:37:01.092Z,29.13
2024-01-06T18:39:29.585Z,33.50
2024-01-06T18:41:59.401Z,31.17
2024-01-06T18:44:27.839Z,29.80
2024-01-06T18:46:56.437Z,35.33
2024-01-06T18:49:24.990Z,31.43
2024-01-06T18:51:53.412Z,32.63
2024-01-06T18:54:30.931Z,31.07
2024-01-06T18:57:04.612Z,31.13
2024-01-06T18:59:33.176Z,34.03
2024-01-06T19:02:01.611Z,28.47
2024-01-06T19:04:29.981Z,30.30
2024-01-06T19:06:58.441Z,34.23
2024-01-06T19:09:27.458Z,32.40
2024-01-06T19:11:55.886Z,32.83
2024-01-06T19:14:25.672Z,32.60
2024-01-06T19:16:54.376Z,31.17
2024-01-06T19:19:23.175Z,31.53
2024-01-06T19:21:51.763Z,38.10
2024-01-06T19:24:27.962Z,31.37
2024-01-06T19:27:01.643Z,34.57
2024-01-06T19:29:33.920Z,37.70
2024-01-06T19:32:06.466Z,34.83
2024-01-06T19:34:38.016Z,36.07
2024-01-06T19:37:07.119Z,32.40
2024-01-06T19:39:35.825Z,34.63
2024-01-06T19:42:04.654Z,31.53
2024-01-06T19:44:34.536Z,33.27
2024-01-06T19:47:03.129Z,28.47
2024-01-06T19:49:31.997Z,34.67
2024-01-06T19:52:00.719Z,35.80
2024-01-06T19:54:29.582Z,36.03
2024-01-06T19:56:58.993Z,33.07
2024-01-06T19:59:27.667Z,32.37
2024-01-06T20:01:57.752Z,30.67
2024-01-06T20:04:27.354Z,34.90
2024-01-06T20:06:55.974Z,37.80
2024-01-06T20:09:24.720Z,32.60
2024-01-06T20:11:55.838Z,38.33
2024-01-06T20:14:25.635Z,35.63
2024-01-06T20:16:57.975Z,38.97
2024-01-06T20:19:28.023Z,32.77
2024-01-06T20:21:56.692Z,38.10
2024-01-06T20:24:25.757Z,37.87
2024-01-06T20:26:57.731Z,34.60
2024-01-06T20:29:28.481Z,34.47
2024-01-06T20:31:59.171Z,34.93
2024-01-06T20:34:29.708Z,31.07
2024-01-06T20:36:58.447Z,34.50
2024-01-06T20:39:27.005Z,35.83
2024-01-06T20:41:55.803Z,35.47
2024-01-06T20:44:24.274Z,34.00
2024-01-06T20:46:54.741Z,33.40
2024-01-06T20:49:24.210Z,30.20
2024-01-06T20:51:56.441Z,28.57
2024-01-06T20:54:25.896Z,28.33
2024-01-06T20:56:54.809Z,28.87
2024-01-06T20:59:23.317Z,25.03
2024-01-06T21:01:52.202Z,24.83
2024-01-06T21:04:20.556Z,24.90
2024-01-06T21:06:49.120Z,21.20
2024-01-06T21:09:20.464Z,24.23
2024-01-06T21:11:48.880Z,23.20
2024-01-06T21:14:17.613Z,25.00
2024-01-06T21:16:45.995Z,24.00
2024-01-06T21:19:14.455Z,24.13
2024-01-06T21:21:45.097Z,26.30
2024-01-06T21:24:13.936Z,27.03
2024-01-06T21:26:43.795Z,23.40
2024-01-06T21:29:12.444Z,27.00
2024-01-06T21:31:41.375Z,24.40
2024-01-06T21:34:10.132Z,25.87
2024-01-06T21:36:40.246Z,23.30
2024-01-06T21:39:08.671Z,25.87
2024-01-06T21:41:37.032Z,26.93
2024-01-06T21:44:06.896Z,26.73
2024-01-06T21:46:35.384Z,26.17
2024-01-06T21:49:04.146Z,27.20
2024-01-06T21:51:32.845Z,26.30
2024-01-06T21:54:02.784Z,27.63
2024-01-06T21:56:31.272Z,24.50
2024-01-06T21:58:59.631Z,24.33
2024-01-06T22:01:29.433Z,27.03
2024-01-06T22:03:57.923Z,24.97
2024-01-06T22:06:26.390Z,22.67
2024-01-06T22:08:55.421Z,26.53
2024-01-06T22:11:23.938Z,23.37
2024-01-06T22:13:52.334Z,29.73
2024-01-06T22:16:20.813Z,28.37
2024-01-06T22:18:51.512Z,31.10
2024-01-06T22:21:20.010Z,29.67
2024-01-06T22:23:48.441Z,32.13
2024-01-06T22:26:16.820Z,30.33
2024-01-06T22:28:45.138Z,33.13
2024-01-06T22:31:13.583Z,30.13
2024-01-06T22:33:42.103Z,31.17
2024-01-06T22:36:14.580Z,30.87
2024-01-06T22:38:52.174Z,31.97
2024-01-06T22:41:23.768Z,31.40
2024-01-06T22:43:52.151Z,31.43
2024-01-06T22:46:21.904Z,32.77
2024-01-06T22:48:51.296Z,33.80
2024-01-06T22:51:21.427Z,34.30
2024-01-06T22:53:50.334Z,31.30
2024-01-06T22:56:18.953Z,35.30
2024-01-06T22:58:47.403Z,36.23
2024-01-06T23:01:15.930Z,34.37
2024-01-06T23:03:44.381Z,37.93
2024-01-06T23:06:12.909Z,34.13
2024-01-06T23:08:43.325Z,40.10
2024-01-06T23:11:13.301Z,35.43
2024-01-06T23:13:41.605Z,40.83
2024-01-06T23:16:10.254Z,35.27
2024-01-06T23:18:38.840Z,37.50
2024-01-06T23:21:07.736Z,39.77
2024-01-06T23:23:36.181Z,34.70
2024-01-06T23:26:06.100Z,33.87
2024-01-06T23:28:34.492Z,35.07
2024-01-06T23:31:03.022Z,36.27
2024-01-06T23:33:33.446Z,36.73
2024-01-06T23:36:01.959Z,32.20
2024-01-06T23:38:30.409Z,33.77
2024-01-06T23:40:58.740Z,35.57
2024-01-06T23:43:28.504Z,32.87
2024-01-06T23:45:56.960Z,36.93
2024-01-06T23:48:25.675Z,35.83
2024-01-06T23:50:54.434Z,34.30
2024-01-06T23:53:22.860Z,36.70
2024-01-06T23:55:51.193Z,41.53
2024-01-06T23:58:19.686Z,38.73
